createdAt,value
2022-12-23T00:01:00.326Z,12.10
2022-12-23T00:04:02.828Z,13.43
2022-12-23T00:07:05.269Z,11.80
2022-12-23T00:10:08.821Z,11.07
2022-12-23T00:13:30.981Z,12.65
2022-12-23T00:16:36.272Z,10.75
2022-12-23T00:19:38.693Z,7.20
2022-12-23T00:23:00.730Z,11.82
2022-12-23T00:26:04.272Z,7.13
2022-12-23T00:29:06.856Z,9.52
2022-12-23T00:32:09.674Z,11.38
2022-12-23T00:35:12.106Z,9.52
2022-12-23T00:38:15.189Z,11.10
2022-12-23T00:41:37.750Z,10.83
2022-12-23T00:44:40.091Z,13.52
2022-12-23T00:48:02.028Z,11.82
2022-12-23T00:51:04.701Z,10.57
2022-12-23T00:54:07.847Z,10.63
2022-12-23T00:57:10.262Z,9.07
2022-12-23T01:00:13.213Z,11.23
2022-12-23T01:03:34.612Z,11.05
2022-12-23T01:06:37.100Z,10.98
2022-12-23T01:09:39.560Z,11.88
2022-12-23T01:12:42.223Z,9.57
2022-12-23T01:15:44.795Z,9.50
2022-12-23T01:18:47.172Z,8.55
2022-12-23T01:21:49.597Z,9.38
2022-12-23T01:24:52.028Z,9.05
2022-12-23T01:27:54.415Z,8.27
2022-12-23T01:30:57.312Z,8.75
2022-12-23T01:33:59.701Z,9.88
2022-12-23T01:37:02.242Z,9.80
2022-12-23T01:40:05.448Z,8.95
2022-12-23T01:43:14.941Z,6.80
2022-12-23T01:46:18.088Z,8.52
2022-12-23T01:49:20.826Z,8.82
2022-12-23T01:52:23.469Z,7.95
2022-12-23T01:55:28.630Z,10.45
2022-12-23T01:58:35.208Z,9.27
2022-12-23T02:01:56.670Z,8.80
2022-12-23T02:04:59.930Z,10.57
2022-12-23T02:08:21.747Z,8.68
2022-12-23T02:11:42.900Z,7.40
2022-12-23T02:15:22.267Z,6.73
2022-12-23T02:19:08.076Z,4.85
2022-12-23T02:22:31.914Z,2.22
2022-12-23T02:25:46.240Z,6.65
2022-12-23T02:29:12.783Z,6.43
2022-12-23T02:32:36.790Z,6.40
2022-12-23T02:36:07.695Z,6.90
2022-12-23T02:39:19.389Z,7.22
2022-12-23T02:42:31.218Z,7.82
2022-12-23T02:45:41.932Z,9.18
2022-12-23T02:49:08.294Z,6.00
2022-12-23T02:52:16.200Z,7.90
2022-12-23T02:55:28.221Z,9.70
2022-12-23T02:58:37.571Z,6.75
2022-12-23T03:01:41.474Z,4.47
2022-12-23T03:04:44.134Z,7.03
2022-12-23T03:07:46.573Z,6.57
2022-12-23T03:11:05.038Z,7.20
2022-12-23T03:14:25.688Z,6.35
2022-12-23T03:17:27.984Z,7.78
2022-12-23T03:20:52.299Z,7.27
2022-12-23T03:24:06.583Z,6.28
2022-12-23T03:27:22.438Z,5.68
2022-12-23T03:30:25.903Z,6.47
2022-12-23T03:33:34.124Z,5.85
2022-12-23T03:36:45.854Z,4.57
2022-12-23T03:39:59.081Z,6.25
2022-12-23T03:43:09.832Z,6.82
2022-12-23T03:46:39.286Z,6.60
2022-12-23T03:49:53.050Z,6.80
2022-12-23T03:53:04.008Z,6.67
2022-12-23T03:56:12.598Z,5.68
2022-12-23T03:59:20.153Z,6.85
2022-12-23T04:02:28.334Z,6.05
2022-12-23T04:05:35.073Z,7.28
2022-12-23T04:08:38.911Z,3.07
2022-12-23T04:11:41.283Z,6.28
2022-12-23T04:14:48.798Z,6.18
2022-12-23T04:17:53.055Z,6.03
2022-12-23T04:20:59.376Z,6.60
2022-12-23T04:24:01.437Z,6.00
2022-12-23T04:27:03.504Z,6.40
2022-12-23T04:30:07.322Z,6.75
2022-12-23T04:33:12.061Z,5.93
2022-12-23T04:36:14.156Z,7.22
2022-12-23T04:39:16.152Z,6.17
2022-12-23T04:42:18.268Z,13.00
2022-12-23T04:45:20.366Z,7.25
2022-12-23T04:48:22.474Z,7.22
2022-12-23T04:51:24.653Z,7.32
2022-12-23T04:54:26.829Z,7.60
2022-12-23T04:57:28.928Z,7.75
2022-12-23T05:00:39.226Z,7.93
2022-12-23T05:03:42.296Z,7.85
2022-12-23T05:06:44.520Z,6.70
2022-12-23T05:09:46.779Z,7.30
2022-12-23T05:12:48.757Z,7.53
2022-12-23T05:15:54.116Z,9.23
2022-12-23T05:18:56.200Z,8.95
2022-12-23T05:21:58.257Z,10.90
2022-12-23T05:25:00.334Z,10.43
2022-12-23T05:28:03.213Z,9.55
2022-12-23T05:31:08.225Z,8.43
2022-12-23T05:34:10.526Z,8.70
2022-12-23T05:37:12.733Z,9.02
2022-12-23T05:40:21.605Z,10.60
2022-12-23T05:43:25.824Z,8.25
2022-12-23T05:46:27.996Z,10.20
2022-12-23T05:49:32.596Z,10.07
2022-12-23T05:52:34.769Z,8.27
2022-12-23T05:55:37.076Z,8.67
2022-12-23T05:58:39.120Z,7.87
2022-12-23T06:01:41.429Z,8.68
2022-12-23T06:04:43.605Z,9.23
2022-12-23T06:07:45.699Z,7.87
2022-12-23T06:10:48.743Z,8.63
2022-12-23T06:13:52.660Z,8.15
2022-12-23T06:16:54.884Z,9.02
2022-12-23T06:19:56.969Z,9.75
2022-12-23T06:22:59.129Z,12.20
2022-12-23T06:26:02.319Z,11.90
2022-12-23T06:29:04.614Z,11.82
2022-12-23T06:32:07.369Z,12.60
2022-12-23T06:35:09.853Z,12.20
2022-12-23T06:38:12.497Z,14.10
2022-12-23T06:41:15.098Z,14.20
2022-12-23T06:44:17.555Z,14.43
2022-12-23T06:47:19.581Z,14.60
2022-12-23T06:50:22.477Z,12.27
2022-12-23T06:53:25.035Z,17.10
2022-12-23T06:56:27.639Z,13.67
2022-12-23T06:59:30.096Z,14.02
2022-12-23T07:02:32.321Z,14.10
2022-12-23T07:05:37.659Z,15.90
2022-12-23T07:08:40.141Z,16.92
2022-12-23T07:11:42.438Z,19.43
2022-12-23T07:14:44.469Z,20.02
2022-12-23T07:17:46.511Z,19.42
2022-12-23T07:20:48.940Z,19.48
2022-12-23T07:23:50.979Z,18.90
2022-12-23T07:26:53.043Z,20.60
2022-12-23T07:29:55.146Z,19.52
2022-12-23T07:32:57.190Z,18.02
2022-12-23T07:35:59.809Z,19.70
2022-12-23T07:39:01.949Z,20.52
2022-12-23T07:42:33.950Z,24.20
2022-12-23T07:45:27.793Z,32.53
2022-12-23T07:48:30.024Z,28.02
2022-12-23T07:51:32.571Z,27.48
2022-12-23T07:54:34.888Z,24.35
2022-12-23T07:57:38.007Z,24.87
2022-12-23T08:00:44.879Z,22.23
2022-12-23T08:03:47.895Z,21.98
2022-12-23T08:06:50.027Z,22.33
2022-12-23T08:09:52.101Z,20.20
2022-12-23T08:12:54.306Z,21.60
2022-12-23T08:16:01.125Z,21.20
2022-12-23T08:19:03.687Z,19.15
2022-12-23T08:22:07.895Z,19.95
2022-12-23T08:25:10.225Z,17.65
2022-12-23T08:28:12.312Z,15.50
2022-12-23T08:31:14.427Z,17.12
2022-12-23T08:34:17.175Z,16.25
2022-12-23T08:37:19.204Z,12.20
2022-12-23T08:40:23.251Z,16.17
2022-12-23T08:43:28.820Z,15.50
2022-12-23T08:46:35.335Z,10.95
2022-12-23T08:49:37.587Z,13.30
2022-12-23T08:52:39.663Z,13.93
2022-12-23T08:55:44.430Z,12.37
2022-12-23T08:58:48.921Z,10.80
2022-12-23T09:01:51.299Z,13.65
2022-12-23T09:04:53.737Z,11.77
2022-12-23T09:07:56.065Z,10.27
2022-12-23T09:10:58.314Z,10.23
2022-12-23T09:14:01.641Z,9.80
2022-12-23T09:17:03.773Z,10.20
2022-12-23T09:20:06.658Z,13.20
2022-12-23T09:23:09.170Z,9.70
2022-12-23T09:26:17.605Z,8.57
2022-12-23T09:29:19.679Z,6.77
2022-12-23T09:32:21.900Z,9.35
2022-12-23T09:35:24.257Z,7.50
2022-12-23T09:38:26.282Z,10.10
2022-12-23T09:42:01.590Z,6.78
2022-12-23T09:45:40.473Z,10.10
2022-12-23T09:49:02.734Z,7.82
2022-12-23T09:52:13.805Z,9.23
2022-12-23T09:55:17.468Z,9.40
2022-12-23T09:58:40.732Z,8.52
2022-12-23T10:02:20.130Z,9.10
2022-12-23T10:05:49.029Z,8.02
2022-12-23T10:08:55.298Z,8.50
2022-12-23T10:11:58.063Z,9.38
2022-12-23T10:15:02.758Z,8.57
2022-12-23T10:18:40.270Z,6.87
2022-12-23T10:21:55.459Z,8.18
2022-12-23T10:25:01.472Z,6.93
2022-12-23T10:28:04.791Z,7.80
2022-12-23T10:34:49.475Z,8.63
2022-12-23T10:37:51.540Z,6.55
2022-12-23T10:41:23.614Z,7.90
2022-12-23T10:45:03.113Z,7.60
2022-12-23T10:48:41.072Z,7.30
2022-12-23T10:52:15.589Z,8.10
2022-12-23T10:55:31.423Z,6.75
2022-12-23T10:58:42.531Z,7.65
2022-12-23T11:01:52.409Z,8.23
2022-12-23T11:04:54.764Z,7.20
2022-12-23T11:07:57.580Z,8.17
2022-12-23T11:11:01.929Z,8.18
2022-12-23T11:14:03.933Z,7.45
2022-12-23T11:17:19.168Z,7.80
2022-12-23T11:20:22.284Z,8.55
2022-12-23T11:23:24.409Z,8.30
2022-12-23T11:26:26.458Z,7.70
2022-12-23T11:29:43.990Z,7.87
2022-12-23T11:32:46.199Z,8.18
2022-12-23T11:35:48.416Z,9.02
2022-12-23T11:39:12.132Z,7.73
2022-12-23T11:42:24.573Z,6.62
2022-12-23T11:45:30.045Z,4.75
2022-12-23T11:48:32.285Z,3.53
2022-12-23T11:51:34.413Z,3.33
2022-12-23T11:54:37.558Z,3.27
2022-12-23T11:57:48.838Z,2.60
2022-12-23T12:00:58.828Z,2.97
2022-12-23T12:04:06.671Z,3.40
2022-12-23T12:07:14.547Z,3.35
2022-12-23T12:10:21.867Z,2.50
2022-12-23T12:13:36.649Z,2.75
2022-12-23T12:17:11.106Z,3.00
2022-12-23T12:20:30.477Z,2.90
2022-12-23T12:24:08.375Z,4.00
2022-12-23T12:27:14.009Z,2.70
2022-12-23T12:30:19.892Z,3.12
2022-12-23T12:33:50.827Z,3.25
2022-12-23T12:36:59.065Z,2.62
2022-12-23T12:40:13.892Z,3.55
2022-12-23T12:43:32.289Z,3.57
2022-12-23T12:46:57.647Z,3.28
2022-12-23T12:50:04.923Z,3.85
2022-12-23T12:53:19.374Z,3.17
2022-12-23T12:56:53.570Z,3.80
2022-12-23T13:00:05.349Z,3.43
2022-12-23T13:03:22.242Z,3.47
2022-12-23T13:06:35.728Z,3.42
2022-12-23T13:09:38.840Z,3.70
2022-12-23T13:12:40.973Z,3.60
2022-12-23T13:15:59.126Z,3.87
2022-12-23T13:19:06.113Z,3.65
2022-12-23T13:22:15.641Z,3.78
2022-12-23T13:25:20.327Z,3.60
2022-12-23T13:29:05.247Z,2.78
2022-12-23T13:32:25.126Z,3.33
2022-12-23T13:35:32.299Z,2.90
2022-12-23T13:38:43.045Z,2.72
2022-12-23T13:41:51.694Z,3.25
2022-12-23T13:44:56.675Z,2.80
2022-12-23T13:48:29.841Z,3.03
2022-12-23T13:51:45.405Z,2.85
2022-12-23T13:54:50.099Z,8.15
2022-12-23T13:57:52.124Z,3.90
2022-12-23T14:01:31.589Z,3.75
2022-12-23T14:04:56.916Z,4.00
2022-12-23T14:08:01.580Z,4.05
2022-12-23T14:11:16.052Z,5.03
2022-12-23T14:14:23.613Z,3.72
2022-12-23T14:17:39.089Z,3.80
2022-12-23T14:21:04.703Z,3.93
2022-12-23T14:24:35.551Z,3.80
2022-12-23T14:28:04.404Z,4.35
2022-12-23T14:31:31.224Z,4.00
2022-12-23T14:34:34.456Z,5.82
2022-12-23T14:37:36.619Z,6.40
2022-12-23T14:40:43.200Z,4.95
2022-12-23T14:43:45.495Z,4.22
2022-12-23T14:46:47.480Z,5.20
2022-12-23T14:49:49.820Z,4.28
2022-12-23T14:53:00.424Z,3.93
2022-12-23T14:56:26.949Z,4.32
2022-12-23T14:59:42.919Z,4.25
2022-12-23T15:02:45.070Z,5.05
2022-12-23T15:05:47.382Z,4.87
2022-12-23T15:08:53.066Z,5.37
2022-12-23T15:11:57.640Z,5.28
2022-12-23T15:15:22.901Z,4.95
2022-12-23T15:18:25.675Z,4.43
2022-12-23T15:21:33.660Z,4.93
2022-12-23T15:24:35.693Z,7.83
2022-12-23T15:27:37.788Z,5.43
2022-12-23T15:30:48.766Z,6.55
2022-12-23T15:34:02.715Z,5.45
2022-12-23T15:37:13.213Z,4.60
2022-12-23T15:40:35.114Z,5.63
2022-12-23T15:43:41.983Z,7.18
2022-12-23T15:46:44.577Z,7.00
2022-12-23T15:49:46.898Z,7.80
2022-12-23T15:52:50.761Z,6.40
2022-12-23T15:55:53.652Z,7.20
2022-12-23T15:58:56.882Z,7.20
2022-12-23T16:01:59.554Z,6.90
2022-12-23T16:05:04.143Z,6.93
2022-12-23T16:08:28.200Z,6.20
2022-12-23T16:12:00.113Z,12.00
2022-12-23T16:15:02.338Z,8.63
2022-12-23T16:18:32.868Z,8.68
2022-12-23T16:21:36.965Z,9.77
2022-12-23T16:24:48.558Z,10.43
2022-12-23T16:27:58.404Z,7.90
2022-12-23T16:31:01.458Z,7.35
2022-12-23T16:34:07.808Z,9.63
2022-12-23T16:37:09.887Z,6.90
2022-12-23T16:40:14.522Z,9.25
2022-12-23T16:43:17.637Z,8.43
2022-12-23T16:46:22.370Z,8.48
2022-12-23T16:49:34.333Z,9.20
2022-12-23T16:52:36.525Z,9.55
2022-12-23T16:55:42.879Z,9.57
2022-12-23T16:58:48.545Z,10.20
2022-12-23T17:01:51.178Z,8.82
2022-12-23T17:04:53.245Z,9.70
2022-12-23T17:07:55.380Z,11.60
2022-12-23T17:10:59.400Z,10.38
2022-12-23T17:14:05.610Z,11.70
2022-12-23T17:17:26.138Z,7.62
2022-12-23T17:20:28.502Z,6.85
2022-12-23T17:23:32.608Z,6.90
2022-12-23T17:26:34.787Z,7.10
2022-12-23T17:29:36.825Z,6.87
2022-12-23T17:32:39.286Z,5.93
2022-12-23T17:35:41.392Z,6.62
2022-12-23T17:38:43.454Z,6.25
2022-12-23T17:41:46.081Z,6.22
2022-12-23T17:44:49.147Z,6.30
2022-12-23T17:47:51.472Z,6.93
2022-12-23T17:50:55.501Z,9.65
2022-12-23T17:53:58.900Z,10.32
2022-12-23T17:57:00.961Z,6.95
2022-12-23T18:00:04.109Z,8.57
2022-12-23T18:03:07.161Z,10.43
2022-12-23T18:06:13.731Z,7.95
2022-12-23T18:09:16.906Z,6.60
2022-12-23T18:12:34.664Z,7.95
2022-12-23T18:15:39.575Z,15.57
2022-12-23T18:18:46.232Z,10.20
2022-12-23T18:21:49.966Z,9.93
2022-12-23T18:24:58.917Z,10.20
2022-12-23T18:28:01.547Z,8.38
2022-12-23T18:31:05.396Z,6.33
2022-12-23T18:34:07.647Z,7.37
2022-12-23T18:37:09.750Z,5.90
2022-12-23T18:40:12.348Z,5.57
2022-12-23T18:43:19.754Z,6.28
2022-12-23T18:46:22.145Z,6.20
2022-12-23T18:49:24.351Z,6.87
2022-12-23T18:52:26.655Z,6.10
2022-12-23T18:55:30.508Z,5.50
2022-12-23T18:58:32.637Z,5.25
2022-12-23T19:01:35.343Z,6.43
2022-12-23T19:04:37.790Z,5.22
2022-12-23T19:07:39.919Z,7.18
2022-12-23T19:10:46.488Z,4.55
2022-12-23T19:13:49.133Z,5.12
2022-12-23T19:16:52.633Z,5.40
2022-12-23T19:19:55.002Z,5.62
2022-12-23T19:22:57.368Z,5.53
2022-12-23T19:25:59.492Z,5.15
2022-12-23T19:29:01.618Z,5.45
2022-12-23T19:32:03.887Z,5.17
2022-12-23T19:35:06.526Z,3.70
2022-12-23T19:38:08.645Z,5.30
2022-12-23T19:41:13.756Z,6.28
2022-12-23T19:44:15.823Z,5.93
2022-12-23T19:47:17.978Z,5.60
2022-12-23T19:50:20.199Z,6.10
2022-12-23T19:53:22.304Z,7.25
2022-12-23T19:56:25.220Z,5.78
2022-12-23T19:59:27.436Z,6.12
2022-12-23T20:02:29.953Z,5.30
2022-12-23T20:05:32.173Z,6.18
2022-12-23T20:08:34.959Z,5.20
2022-12-23T20:11:48.706Z,4.65
2022-12-23T20:14:51.007Z,5.50
2022-12-23T20:17:54.282Z,5.00
2022-12-23T20:20:58.386Z,5.10
2022-12-23T20:24:00.871Z,6.30
2022-12-23T20:27:09.314Z,6.43
2022-12-23T20:30:13.664Z,9.50
2022-12-23T20:33:16.352Z,6.10
2022-12-23T20:36:21.806Z,6.60
2022-12-23T20:39:24.077Z,5.10
2022-12-23T20:42:28.153Z,3.95
2022-12-23T20:45:30.899Z,3.92
2022-12-23T20:48:34.695Z,5.17
2022-12-23T20:51:37.274Z,5.25
2022-12-23T20:54:39.599Z,5.72
2022-12-23T20:57:44.948Z,4.40
2022-12-23T21:00:49.885Z,4.75
2022-12-23T21:03:52.220Z,4.30
2022-12-23T21:06:54.352Z,4.37
2022-12-23T21:09:56.486Z,4.85
2022-12-23T21:12:58.663Z,4.28
2022-12-23T21:16:02.810Z,4.03
2022-12-23T21:19:07.513Z,3.60
2022-12-23T21:22:09.785Z,4.97
2022-12-23T21:25:11.859Z,4.50
2022-12-23T21:28:13.924Z,4.40
2022-12-23T21:31:19.128Z,4.22
2022-12-23T21:34:21.219Z,4.37
2022-12-23T21:37:23.249Z,4.25
2022-12-23T21:40:25.465Z,4.78
2022-12-23T21:43:27.976Z,4.50
2022-12-23T21:46:30.208Z,5.15
2022-12-23T21:49:32.351Z,4.07
2022-12-23T21:52:34.381Z,4.53
2022-12-23T21:55:36.394Z,4.28
2022-12-23T21:58:39.075Z,4.22
2022-12-23T22:01:42.629Z,4.95
2022-12-23T22:04:44.789Z,3.80
2022-12-23T22:07:46.813Z,4.32
2022-12-23T22:10:55.196Z,3.47
2022-12-23T22:13:58.934Z,3.12
2022-12-23T22:17:01.042Z,2.47
2022-12-23T22:20:03.980Z,3.83
2022-12-23T22:23:07.232Z,2.70
2022-12-23T22:26:17.447Z,3.60
2022-12-23T22:29:22.988Z,3.03
2022-12-23T22:32:25.301Z,3.15
2022-12-23T22:35:28.093Z,3.07
2022-12-23T22:38:30.262Z,4.00
2022-12-23T22:41:32.987Z,3.75
2022-12-23T22:44:35.094Z,3.83
2022-12-23T22:47:37.413Z,3.90
2022-12-23T22:50:41.123Z,3.37
2022-12-23T22:53:44.422Z,3.20
2022-12-23T22:56:46.562Z,3.83
2022-12-23T22:59:48.694Z,2.95
2022-12-23T23:02:50.715Z,3.47
2022-12-23T23:05:56.740Z,3.17
2022-12-23T23:08:59.472Z,2.83
2022-12-23T23:12:01.864Z,3.42
2022-12-23T23:15:04.311Z,3.15
2022-12-23T23:18:06.426Z,3.30
2022-12-23T23:21:11.552Z,3.43
2022-12-23T23:24:13.772Z,3.95
2022-12-23T23:27:16.174Z,3.10
2022-12-23T23:30:20.641Z,3.58
2022-12-23T23:33:22.857Z,3.55
2022-12-23T23:36:25.244Z,3.37
2022-12-23T23:39:27.646Z,3.50
2022-12-23T23:42:29.963Z,2.80
2022-12-23T23:45:32.192Z,3.80
2022-12-23T23:48:34.391Z,3.65
2022-12-23T23:51:36.453Z,2.93
2022-12-23T23:54:38.925Z,2.92
2022-12-23T23:57:41.053Z,3.15
